Time;durP1;ratioP1;P1;durP2;ratioP2;P2;SDS_P1;SDS_P2;PMS_P1;PMS_P2;Temp;Humidity;BMP_temperature;BMP_pressure;BME280_temperature;BME280_humidity;BME280_pressure;Samples;Min_cycle;Max_cycle;Signal;HPM_P1;HPM_P2
2023/07/12 00:00:30;;;;;;;6.38;3.22;;;;;;;17.37;100.00;96078.50;2115540;28;20467;-57
2023/07/12 00:01:31;;;;;;;7.15;3.38;;;;;;;17.35;100.00;96075.13;2114768;28;20058;-58
2023/07/12 00:02:33;;;;;;;6.00;3.65;;;;;;;17.35;100.00;96072.50;2114884;28;20056;-57
2023/07/12 00:03:34;;;;;;;5.35;3.20;;;;;;;17.35;100.00;96079.56;2114992;28;20047;-57
2023/07/12 00:04:35;;;;;;;6.07;3.17;;;;;;;17.34;100.00;96088.38;2114638;28;20403;-57
2023/07/12 00:05:36;;;;;;;7.55;3.30;;;;;;;17.32;100.00;96090.25;2114498;28;20058;-57
2023/07/12 00:06:38;;;;;;;7.70;3.70;;;;;;;17.33;100.00;96089.31;2106321;28;20047;-57
2023/07/12 00:07:39;;;;;;;6.32;3.35;;;;;;;17.34;100.00;96083.94;2106428;28;20048;-57
2023/07/12 00:08:43;;;;;;;6.38;3.35;;;;;;;17.32;100.00;96080.63;2114727;28;20052;-58
2023/07/12 00:09:45;;;;;;;9.30;3.92;;;;;;;17.33;100.00;96086.69;2115380;28;20050;-57
2023/07/12 00:10:46;;;;;;;7.90;3.20;;;;;;;17.29;100.00;96086.06;2115373;28;20044;-57
2023/07/12 00:11:47;;;;;;;5.20;3.45;;;;;;;17.31;100.00;96088.59;2114430;28;20047;-57
2023/07/12 00:12:49;;;;;;;6.35;3.40;;;;;;;17.32;100.00;96093.75;2114647;28;20051;-57
2023/07/12 00:13:53;;;;;;;6.65;3.72;;;;;;;17.30;100.00;96084.31;2114579;28;20508;-57
2023/07/12 00:14:54;;;;;;;8.57;3.33;;;;;;;17.33;100.00;96087.53;2114665;28;20055;-57
2023/07/12 00:15:56;;;;;;;5.07;3.00;;;;;;;17.32;100.00;96082.38;2115339;28;20217;-58
2023/07/12 00:16:57;;;;;;;7.53;3.10;;;;;;;17.33;100.00;96095.41;2115166;28;20391;-58
2023/07/12 00:17:58;;;;;;;6.28;3.20;;;;;;;17.34;100.00;96091.00;2115203;28;20051;-58
2023/07/12 00:18:59;;;;;;;9.77;3.83;;;;;;;17.38;100.00;96092.47;2114735;28;20051;-58
2023/07/12 00:20:00;;;;;;;5.85;3.78;;;;;;;17.38;100.00;96101.16;2115265;28;20062;-58
2023/07/12 00:21:01;;;;;;;8.52;3.63;;;;;;;17.40;100.00;96101.91;2115234;28;20046;-57
2023/07/12 00:22:03;;;;;;;6.18;3.88;;;;;;;17.42;100.00;96101.75;2115269;28;20046;-58
2023/07/12 00:23:04;;;;;;;8.98;3.45;;;;;;;17.44;100.00;96109.53;2114636;28;20066;-57
2023/07/12 00:24:05;;;;;;;8.85;3.90;;;;;;;17.47;100.00;96104.06;2115144;28;20153;-57
2023/07/12 00:25:06;;;;;;;8.85;3.75;;;;;;;17.47;100.00;96107.53;2114603;28;20048;-57
2023/07/12 00:26:20;;;;;;;6.40;3.58;;;;;;;17.47;100.00;96110.16;2114286;28;20051;-58
2023/07/12 00:27:21;;;;;;;9.52;3.75;;;;;;;17.46;100.00;96108.47;2105321;28;20052;-57
2023/07/12 00:28:27;;;;;;;5.38;3.45;;;;;;;17.38;100.00;96098.53;2106534;28;20060;-58
2023/07/12 00:29:28;;;;;;;10.93;3.92;;;;;;;17.38;100.00;96100.34;2114390;28;20153;-57
2023/07/12 00:30:30;;;;;;;11.38;3.88;;;;;;;17.44;100.00;96109.53;2115159;28;20036;-58
2023/07/12 00:31:33;;;;;;;7.93;3.75;;;;;;;17.45;100.00;96109.41;2115218;28;20071;-58
2023/07/12 00:32:34;;;;;;;5.93;3.67;;;;;;;17.41;100.00;96100.94;2114523;28;20066;-57
2023/07/12 00:33:35;;;;;;;9.65;4.03;;;;;;;17.44;100.00;96099.03;2115021;28;20095;-58
2023/07/12 00:34:40;;;;;;;6.20;3.30;;;;;;;17.42;100.00;96088.63;2105418;28;20055;-58
2023/07/12 00:35:42;;;;;;;7.85;3.75;;;;;;;17.46;100.00;96086.66;2106224;28;20050;-57
2023/07/12 00:36:43;;;;;;;6.82;3.80;;;;;;;17.47;100.00;96097.03;2097612;28;20056;-57
2023/07/12 00:37:44;;;;;;;7.78;4.03;;;;;;;17.48;100.00;96103.09;2097884;28;20169;-57
2023/07/12 00:38:45;;;;;;;9.70;4.60;;;;;;;17.46;100.00;96091.91;2114479;28;20056;-57
2023/07/12 00:39:46;;;;;;;9.23;4.07;;;;;;;17.48;100.00;96088.22;2115114;28;20039;-58
2023/07/12 00:41:15;;;;;;;9.18;4.20;;;;;;;17.50;100.00;96081.03;2114338;28;20056;-57
2023/07/12 00:42:20;;;;;;;6.57;3.78;;;;;;;17.49;100.00;96070.66;2105910;28;20056;-56
2023/07/12 00:43:30;;;;;;;7.30;4.03;;;;;;;17.48;100.00;96056.72;2097853;28;20056;-56
2023/07/12 00:44:44;;;;;;;9.65;4.72;;;;;;;17.43;100.00;96032.59;2098511;28;20048;-57
2023/07/12 00:45:47;;;;;;;7.28;4.10;;;;;;;17.48;100.00;96040.09;2090568;28;20052;-57
2023/07/12 00:46:53;;;;;;;6.95;4.20;;;;;;;17.46;100.00;96049.91;2098467;28;20518;-57
2023/07/12 00:47:54;;;;;;;7.28;3.88;;;;;;;17.47;100.00;96054.19;2105892;28;20507;-57
2023/07/12 00:48:55;;;;;;;8.82;4.25;;;;;;;17.46;100.00;96055.97;2105221;28;20048;-56
2023/07/12 00:49:57;;;;;;;10.93;4.93;;;;;;;17.51;100.00;96063.50;2114968;28;20044;-57
2023/07/12 00:50:58;;;;;;;8.82;4.35;;;;;;;17.53;100.00;96069.47;2105999;28;20047;-56
2023/07/12 00:52:00;;;;;;;8.52;4.60;;;;;;;17.54;100.00;96071.16;2088953;28;20128;-56
2023/07/12 00:53:02;;;;;;;9.38;3.67;;;;;;;17.49;100.00;96068.03;2089707;28;20037;-57
2023/07/12 00:54:12;;;;;;;7.50;4.22;;;;;;;17.52;100.00;96075.69;2097895;28;20048;-56
2023/07/12 00:55:51;;;;;;;11.95;4.10;;;;;;;17.54;100.00;96081.66;2090655;28;20045;-56
2023/07/12 00:56:52;;;;;;;6.28;3.85;;;;;;;17.49;100.00;96084.63;2108935;28;20088;-56
2023/07/12 00:57:53;;;;;;;9.13;3.95;;;;;;;17.50;100.00;96080.22;2105353;28;20048;-56
2023/07/12 00:58:57;;;;;;;8.77;3.65;;;;;;;17.39;100.00;96076.56;2105779;28;20059;-56
2023/07/12 01:00:10;;;;;;;10.15;3.90;;;;;;;17.44;100.00;96102.50;2097547;28;20055;-57
2023/07/12 01:01:11;;;;;;;9.60;3.75;;;;;;;17.39;100.00;96087.06;2092100;28;20052;-56
2023/07/12 01:02:15;;;;;;;9.30;4.13;;;;;;;17.42;100.00;96068.47;2107305;28;20050;-57
2023/07/12 01:03:17;;;;;;;7.03;4.00;;;;;;;17.43;100.00;96053.59;2105893;28;20055;-56
2023/07/12 01:04:24;;;;;;;11.25;4.70;;;;;;;17.50;100.00;96046.91;2081018;28;20050;-57
2023/07/12 01:05:25;;;;;;;8.07;4.35;;;;;;;17.49;100.00;96053.13;2091551;28;20061;-56
2023/07/12 01:06:26;;;;;;;6.93;4.18;;;;;;;17.49;100.00;96068.03;2115162;28;20459;-56
2023/07/12 01:07:29;;;;;;;7.70;4.32;;;;;;;17.48;100.00;96072.47;2096635;28;20048;-56
2023/07/12 01:08:30;;;;;;;9.45;4.45;;;;;;;17.48;100.00;96069.84;2089795;28;20044;-56
2023/07/12 01:09:32;;;;;;;6.47;3.58;;;;;;;17.50;100.00;96069.72;2106292;28;20363;-57
2023/07/12 01:10:33;;;;;;;9.63;4.28;;;;;;;17.49;100.00;96068.03;2105884;28;20106;-56
2023/07/12 01:11:36;;;;;;;8.73;4.28;;;;;;;17.48;100.00;96061.09;2081323;28;20053;-56
2023/07/12 01:12:37;;;;;;;9.55;3.78;;;;;;;17.48;100.00;96047.97;2080970;28;20116;-57
2023/07/12 01:13:42;;;;;;;9.27;4.18;;;;;;;17.48;100.00;96056.72;2105149;28;20048;-56
2023/07/12 01:14:43;;;;;;;7.38;3.70;;;;;;;17.49;100.00;96042.63;2106152;28;20040;-56
2023/07/12 01:15:44;;;;;;;6.95;4.07;;;;;;;17.49;100.00;96039.16;2096842;28;20056;-56
2023/07/12 01:16:51;;;;;;;7.53;4.18;;;;;;;17.48;100.00;96032.22;2081166;28;20072;-56
2023/07/12 01:17:52;;;;;;;7.68;3.78;;;;;;;17.49;100.00;96033.91;2083031;28;20049;-56
2023/07/12 01:18:53;;;;;;;9.60;4.28;;;;;;;17.49;100.00;96026.88;2105843;28;20044;-56
2023/07/12 01:19:54;;;;;;;5.88;3.72;;;;;;;17.48;100.00;96019.97;2104892;28;20048;-56
2023/07/12 01:21:05;;;;;;;7.88;4.50;;;;;;;17.51;100.00;96006.59;2105574;28;20052;-57
2023/07/12 01:22:06;;;;;;;8.63;4.38;;;;;;;17.50;100.00;96004.06;2114312;28;20048;-56
2023/07/12 01:23:09;;;;;;;14.30;4.25;;;;;;;17.51;100.00;95987.34;2105081;28;20055;-56
2023/07/12 01:24:10;;;;;;;7.28;4.45;;;;;;;17.46;100.00;95960.63;2097798;28;20036;-55
2023/07/12 01:25:12;;;;;;;7.95;4.28;;;;;;;17.44;100.00;95952.03;2105925;28;20051;-58
2023/07/12 01:26:25;;;;;;;6.50;4.18;;;;;;;17.51;100.00;95959.34;2105736;28;20051;-56
2023/07/12 01:27:26;;;;;;;7.18;4.20;;;;;;;17.52;100.00;95954.91;2107066;28;20431;-56
2023/07/12 01:28:27;;;;;;;11.18;4.90;;;;;;;17.49;100.00;95936.78;2114992;28;20066;-56
2023/07/12 01:29:29;;;;;;;8.88;4.45;;;;;;;17.51;100.00;95935.72;2105915;28;20040;-55
2023/07/12 01:30:30;;;;;;;12.38;4.68;;;;;;;17.55;100.00;95929.25;2105321;28;20060;-56
2023/07/12 01:31:32;;;;;;;7.05;4.57;;;;;;;17.54;100.00;95913.66;2114033;28;20048;-56
2023/07/12 01:32:33;;;;;;;9.95;5.20;;;;;;;17.50;100.00;95910.41;2105974;28;20044;-56
2023/07/12 01:33:34;;;;;;;11.55;4.85;;;;;;;17.50;100.00;95920.06;2097591;28;20048;-56
2023/07/12 01:34:36;;;;;;;7.68;4.15;;;;;;;17.50;100.00;95920.06;2105974;28;20044;-58
2023/07/12 01:35:37;;;;;;;9.48;4.50;;;;;;;17.48;100.00;95929.84;2105713;28;20070;-57
2023/07/12 01:36:38;;;;;;;8.43;4.75;;;;;;;17.45;100.00;95911.69;2097370;28;20075;-57
2023/07/12 01:37:39;;;;;;;9.20;4.63;;;;;;;17.47;100.00;95902.75;2105196;28;20052;-57
2023/07/12 01:38:40;;;;;;;7.32;4.38;;;;;;;17.50;100.00;95909.56;2114726;28;20039;-57
2023/07/12 01:39:41;;;;;;;9.00;4.60;;;;;;;17.54;100.00;95911.00;2105041;28;20059;-57
2023/07/12 01:40:42;;;;;;;12.32;4.82;;;;;;;17.53;100.00;95917.19;2104940;28;20063;-57
2023/07/12 01:41:46;;;;;;;10.73;4.82;;;;;;;17.50;100.00;95914.81;2105370;28;20056;-57
2023/07/12 01:42:48;;;;;;;9.88;4.95;;;;;;;17.49;100.00;95913.97;2104923;28;20055;-57
2023/07/12 01:43:49;;;;;;;13.48;5.10;;;;;;;17.51;100.00;95919.09;2105249;28;20427;-57
2023/07/12 01:44:50;;;;;;;10.73;5.55;;;;;;;17.50;100.00;95914.81;2097251;28;20036;-57
2023/07/12 01:45:51;;;;;;;12.75;5.18;;;;;;;17.50;100.00;95920.06;2097384;28;20048;-58
2023/07/12 01:46:52;;;;;;;8.80;4.88;;;;;;;17.42;100.00;95916.22;2098861;28;20052;-57
2023/07/12 01:47:55;;;;;;;12.13;5.93;;;;;;;17.47;100.00;95926.38;2106714;28;20376;-57
2023/07/12 01:48:57;;;;;;;9.48;5.43;;;;;;;17.44;100.00;95924.00;2116446;28;20050;-57
2023/07/12 01:49:59;;;;;;;9.68;5.20;;;;;;;17.45;100.00;95916.94;2107647;28;20036;-57
2023/07/12 01:51:00;;;;;;;11.80;5.85;;;;;;;17.42;100.00;95921.47;2098919;28;20051;-57
2023/07/12 01:52:02;;;;;;;7.97;5.13;;;;;;;17.44;100.00;95917.91;2098919;28;20045;-57
2023/07/12 01:53:03;;;;;;;10.43;5.75;;;;;;;17.44;100.00;95916.13;2107382;28;20043;-57
2023/07/12 01:54:04;;;;;;;10.23;5.63;;;;;;;17.45;100.00;95920.41;2115644;28;20044;-57
2023/07/12 01:55:05;;;;;;;10.98;5.43;;;;;;;17.45;100.00;95919.56;2115801;28;20455;-57
2023/07/12 01:56:07;;;;;;;9.50;5.00;;;;;;;17.43;100.00;95914.47;2116538;28;20039;-57
2023/07/12 01:57:08;;;;;;;10.75;5.57;;;;;;;17.43;100.00;95909.22;2106613;28;20047;-57
2023/07/12 01:58:09;;;;;;;12.95;5.85;;;;;;;17.42;100.00;95908.34;2098788;28;20105;-57
2023/07/12 01:59:10;;;;;;;8.85;5.25;;;;;;;17.46;100.00;95900.25;2106359;28;20048;-57
2023/07/12 02:00:12;;;;;;;11.27;5.25;;;;;;;17.40;100.00;95876.16;2107360;28;20047;-57
2023/07/12 02:01:20;;;;;;;7.55;5.22;;;;;;;17.49;100.00;95869.34;2108662;28;20048;-57
2023/07/12 02:02:21;;;;;;;9.90;5.28;;;;;;;17.47;100.00;95855.50;2107098;28;20423;-57
2023/07/12 02:03:22;;;;;;;6.95;4.70;;;;;;;17.49;100.00;95858.03;2106608;28;20056;-57
2023/07/12 02:04:23;;;;;;;13.27;4.82;;;;;;;17.44;100.00;95839.16;2116399;28;20051;-57
2023/07/12 02:05:24;;;;;;;9.68;5.85;;;;;;;17.46;100.00;95832.84;2116469;28;20046;-57
2023/07/12 02:06:25;;;;;;;8.75;4.38;;;;;;;17.46;100.00;95818.88;2107085;28;20059;-57
2023/07/12 02:07:26;;;;;;;12.05;5.75;;;;;;;17.52;100.00;95818.41;2107208;28;20120;-57
2023/07/12 02:08:28;;;;;;;7.78;5.03;;;;;;;17.51;100.00;95803.59;2116392;28;20055;-57
2023/07/12 02:09:38;;;;;;;8.93;4.80;;;;;;;17.54;100.00;95806.84;2107331;28;20395;-57
2023/07/12 02:10:39;;;;;;;11.23;4.40;;;;;;;17.54;100.00;95812.09;2100019;28;20060;-57
2023/07/12 02:11:40;;;;;;;8.70;4.60;;;;;;;17.55;100.00;95818.16;2098606;28;20052;-57
2023/07/12 02:12:41;;;;;;;6.65;4.03;;;;;;;17.55;100.00;95819.00;2098128;28;20048;-57
2023/07/12 02:13:43;;;;;;;8.23;4.72;;;;;;;17.48;100.00;95788.09;2098756;28;20051;-57
2023/07/12 02:14:45;;;;;;;7.88;4.60;;;;;;;17.53;100.00;95792.00;2106410;28;20055;-57
2023/07/12 02:15:46;;;;;;;8.45;4.97;;;;;;;17.48;100.00;95790.72;2116269;28;20047;-58
2023/07/12 02:16:47;;;;;;;6.15;4.07;;;;;;;17.49;100.00;95822.09;2106759;28;20145;-57
2023/07/12 02:17:48;;;;;;;8.57;4.68;;;;;;;17.44;100.00;95833.91;2106631;28;20063;-57
2023/07/12 02:18:49;;;;;;;7.68;4.30;;;;;;;17.44;100.00;95847.88;2107204;28;20040;-57
2023/07/12 02:19:50;;;;;;;11.02;4.75;;;;;;;17.42;100.00;95840.09;2106612;28;20499;-57
2023/07/12 02:20:53;;;;;;;10.75;4.50;;;;;;;17.44;100.00;95847.03;2116325;28;20039;-57
2023/07/12 02:21:54;;;;;;;10.95;4.70;;;;;;;17.41;100.00;95848.94;2116506;28;20048;-57
2023/07/12 02:22:55;;;;;;;9.23;4.15;;;;;;;17.31;100.00;95836.63;2115944;28;20406;-58
2023/07/12 02:23:56;;;;;;;9.98;5.47;;;;;;;17.39;100.00;95840.34;2115790;28;20052;-58
2023/07/12 02:24:57;;;;;;;11.63;5.35;;;;;;;17.38;100.00;95830.81;2106885;28;20063;-62
2023/07/12 02:25:58;;;;;;;8.88;4.50;;;;;;;17.37;100.00;95826.53;2107186;28;20044;-63
2023/07/12 02:27:00;;;;;;;8.65;5.20;;;;;;;17.35;100.00;95825.78;2115615;28;20055;-62
2023/07/12 02:28:01;;;;;;;6.55;4.50;;;;;;;17.34;100.00;95818.84;2107013;28;20048;-62
2023/07/12 02:29:06;;;;;;;9.02;5.47;;;;;;;17.34;100.00;95810.97;2098738;28;20049;-63
2023/07/12 02:30:12;;;;;;;7.32;4.93;;;;;;;17.31;100.00;95811.22;2098927;28;20173;-63
2023/07/12 02:31:23;;;;;;;8.82;5.40;;;;;;;17.35;100.00;95817.91;2107994;28;20384;-63
2023/07/12 02:32:26;;;;;;;6.88;5.00;;;;;;;17.31;100.00;95832.22;2106311;28;20132;-62
2023/07/12 02:33:28;;;;;;;7.45;4.80;;;;;;;17.30;100.00;95848.94;2098825;28;20052;-63
2023/07/12 02:34:29;;;;;;;12.20;5.10;;;;;;;17.30;100.00;95856.81;2106912;28;20095;-63
2023/07/12 02:35:31;;;;;;;9.10;4.88;;;;;;;17.29;100.00;95849.88;2116322;28;20044;-62
2023/07/12 02:36:32;;;;;;;7.63;4.53;;;;;;;17.20;100.00;95846.16;2116342;28;20448;-62
2023/07/12 02:37:33;;;;;;;7.10;4.57;;;;;;;17.27;100.00;95853.56;2116119;28;20054;-63
2023/07/12 02:38:34;;;;;;;9.85;4.97;;;;;;;17.26;100.00;95847.47;2115356;28;20052;-61
2023/07/12 02:39:35;;;;;;;9.07;4.75;;;;;;;17.24;100.00;95833.66;2115815;28;20345;-62
2023/07/12 02:40:36;;;;;;;10.38;4.97;;;;;;;17.17;100.00;95828.03;2116066;28;20052;-62
2023/07/12 02:41:38;;;;;;;12.00;5.68;;;;;;;17.19;100.00;95844.50;2115522;28;20066;-63
2023/07/12 02:42:39;;;;;;;9.15;5.13;;;;;;;17.19;100.00;95846.28;2115578;28;20419;-61
2023/07/12 02:43:40;;;;;;;9.73;5.47;;;;;;;17.20;100.00;95850.59;2115730;28;20056;-62
2023/07/12 02:44:41;;;;;;;11.80;5.65;;;;;;;17.11;100.00;95825.88;2115440;28;20051;-62
2023/07/12 02:45:47;;;;;;;7.90;5.03;;;;;;;17.15;100.00;95831.72;2115230;28;20048;-62
2023/07/12 02:46:48;;;;;;;9.32;5.05;;;;;;;17.17;100.00;95832.44;2116459;28;20047;-62
2023/07/12 02:47:49;;;;;;;10.55;5.53;;;;;;;17.13;100.00;95834.47;2116834;28;20054;-62
2023/07/12 02:48:50;;;;;;;9.15;5.10;;;;;;;17.16;100.00;95833.38;2115669;28;20048;-62
2023/07/12 02:49:52;;;;;;;9.48;5.63;;;;;;;17.16;100.00;95828.13;2115704;28;20052;-62
2023/07/12 02:50:53;;;;;;;8.90;6.13;;;;;;;17.15;100.00;95826.47;2115497;28;20051;-62
2023/07/12 02:51:54;;;;;;;8.82;5.80;;;;;;;17.16;100.00;95829.00;2116380;28;20043;-62
2023/07/12 02:52:55;;;;;;;10.63;5.70;;;;;;;17.13;100.00;95816.13;2116215;28;20047;-62
2023/07/12 02:53:56;;;;;;;9.48;5.78;;;;;;;17.12;100.00;95814.44;2116121;28;20040;-63
2023/07/12 02:54:58;;;;;;;10.10;5.40;;;;;;;17.12;100.00;95810.97;2115062;28;20440;-62
2023/07/12 02:55:59;;;;;;;13.20;6.30;;;;;;;17.10;100.00;95810.25;2114883;28;20051;-62
2023/07/12 02:57:00;;;;;;;8.13;5.68;;;;;;;17.09;100.00;95808.59;2115271;28;20152;-62
2023/07/12 02:58:01;;;;;;;7.72;5.35;;;;;;;17.04;100.00;95808.94;2114568;28;20070;-62
2023/07/12 02:59:02;;;;;;;9.30;5.88;;;;;;;17.04;100.00;95814.19;2116095;28;20047;-63
2023/07/12 03:00:03;;;;;;;10.88;5.50;;;;;;;16.99;100.00;95813.69;2115282;28;20055;-63
2023/07/12 03:01:04;;;;;;;9.82;5.30;;;;;;;16.95;100.00;95810.47;2116253;28;20040;-62
2023/07/12 03:02:07;;;;;;;9.52;5.68;;;;;;;17.00;100.00;95809.28;2115933;28;20036;-62
2023/07/12 03:03:09;;;;;;;13.68;5.95;;;;;;;16.98;100.00;95809.41;2115053;28;20064;-62
2023/07/12 03:04:10;;;;;;;11.25;5.97;;;;;;;16.98;100.00;95802.38;2116031;28;20043;-62
2023/07/12 03:05:11;;;;;;;9.60;5.30;;;;;;;16.97;100.00;95805.94;2116774;28;20051;-59
2023/07/12 03:06:12;;;;;;;13.70;6.72;;;;;;;16.95;100.00;95801.78;2115227;28;20085;-59
2023/07/12 03:07:13;;;;;;;9.02;5.80;;;;;;;16.93;100.00;95799.25;2115659;28;20051;-59
2023/07/12 03:08:14;;;;;;;13.52;6.30;;;;;;;16.95;100.00;95804.38;2114916;28;20067;-59
2023/07/12 03:09:15;;;;;;;10.10;5.65;;;;;;;16.89;100.00;95795.19;2115881;28;20051;-59
2023/07/12 03:10:16;;;;;;;11.07;6.63;;;;;;;16.93;100.00;95801.88;2115558;28;20055;-59
2023/07/12 03:11:17;;;;;;;9.52;6.15;;;;;;;16.89;100.00;95789.09;2115393;28;20407;-59
2023/07/12 03:12:19;;;;;;;13.35;6.70;;;;;;;16.93;100.00;95788.75;2115325;28;20063;-59
2023/07/12 03:13:20;;;;;;;12.20;5.50;;;;;;;16.94;100.00;95784.34;2115581;28;20051;-59
2023/07/12 03:14:21;;;;;;;10.10;5.60;;;;;;;16.93;100.00;95775.66;2115834;28;20035;-59
2023/07/12 03:15:23;;;;;;;9.85;5.65;;;;;;;16.87;100.00;95770.03;2115697;28;20043;-59
2023/07/12 03:16:24;;;;;;;10.07;5.80;;;;;;;16.88;100.00;95762.03;2115162;28;20071;-59
2023/07/12 03:17:25;;;;;;;11.77;6.40;;;;;;;16.87;100.00;95762.19;2115565;28;20048;-58
2023/07/12 03:18:27;;;;;;;10.85;6.65;;;;;;;16.91;100.00;95774.91;2114758;28;20058;-58
2023/07/12 03:19:28;;;;;;;12.02;6.40;;;;;;;16.93;100.00;95769.56;2115027;28;20052;-58
2023/07/12 03:20:31;;;;;;;8.45;5.53;;;;;;;16.92;100.00;95775.75;2115830;28;20048;-58
2023/07/12 03:21:32;;;;;;;12.10;5.88;;;;;;;16.91;100.00;95767.03;2115646;28;20135;-59
2023/07/12 03:22:33;;;;;;;15.07;6.10;;;;;;;16.90;100.00;95775.88;2115948;28;20070;-58
2023/07/12 03:23:35;;;;;;;8.13;5.03;;;;;;;16.91;100.00;95771.47;2115768;28;20066;-58
2023/07/12 03:24:36;;;;;;;12.35;5.85;;;;;;;16.89;100.00;95761.09;2114812;28;20063;-58
2023/07/12 03:25:37;;;;;;;12.82;6.10;;;;;;;16.90;100.00;95770.63;2115108;28;20055;-58
2023/07/12 03:26:38;;;;;;;14.25;6.10;;;;;;;16.88;100.00;95767.28;2115846;28;20467;-58
2023/07/12 03:27:40;;;;;;;10.30;6.05;;;;;;;16.83;100.00;95764.16;2115633;28;20047;-58
2023/07/12 03:28:41;;;;;;;12.88;6.53;;;;;;;16.88;100.00;95766.47;2115231;28;20078;-58
2023/07/12 03:29:42;;;;;;;14.30;6.53;;;;;;;16.87;100.00;95760.38;2115246;28;20172;-58
2023/07/12 03:30:43;;;;;;;14.32;6.20;;;;;;;16.87;100.00;95754.31;2105931;28;20499;-58
2023/07/12 03:31:44;;;;;;;10.52;6.72;;;;;;;16.88;100.00;95758.59;2106730;28;20059;-58
2023/07/12 03:32:45;;;;;;;12.27;6.00;;;;;;;16.86;100.00;95747.38;2115886;28;20059;-58
2023/07/12 03:33:46;;;;;;;10.13;5.78;;;;;;;16.86;100.00;95752.63;2115902;28;20367;-60
2023/07/12 03:34:47;;;;;;;12.95;6.88;;;;;;;16.84;100.00;95752.75;2115634;28;20054;-59
2023/07/12 03:35:50;;;;;;;10.70;6.45;;;;;;;16.84;100.00;95755.38;2115880;28;20047;-59
2023/07/12 03:36:51;;;;;;;12.63;6.53;;;;;;;16.81;100.00;95755.59;2115019;28;20048;-59
2023/07/12 03:37:52;;;;;;;12.10;6.40;;;;;;;16.82;100.00;95745.94;2115774;28;20048;-59
2023/07/12 03:38:53;;;;;;;14.50;6.38;;;;;;;16.82;100.00;95746.78;2115941;28;20041;-59
2023/07/12 03:39:55;;;;;;;12.18;6.50;;;;;;;16.84;100.00;95746.66;2115721;28;20051;-57
2023/07/12 03:40:58;;;;;;;10.43;6.90;;;;;;;16.81;100.00;95739.00;2115121;28;20534;-58
2023/07/12 03:42:00;;;;;;;10.68;6.15;;;;;;;16.84;100.00;95739.63;2114906;28;20143;-57
2023/07/12 03:43:01;;;;;;;15.85;7.05;;;;;;;16.83;100.00;95737.94;2115651;28;20050;-58
2023/07/12 03:44:02;;;;;;;15.55;6.85;;;;;;;16.83;100.00;95737.13;2115337;28;20363;-57
2023/07/12 03:45:03;;;;;;;10.75;7.03;;;;;;;16.84;100.00;95739.63;2114983;28;20043;-57
2023/07/12 03:46:04;;;;;;;17.45;7.95;;;;;;;16.85;100.00;95740.47;2114931;28;20055;-57
2023/07/12 03:47:06;;;;;;;11.65;7.10;;;;;;;16.84;100.00;95752.75;2114822;28;20055;-57
2023/07/12 03:48:07;;;;;;;10.55;6.70;;;;;;;16.82;100.00;95744.16;2115590;28;20135;-57
2023/07/12 03:49:08;;;;;;;13.90;6.35;;;;;;;16.85;100.00;95740.47;2114940;28;20043;-57
2023/07/12 03:50:09;;;;;;;10.70;5.72;;;;;;;16.80;100.00;95730.31;2115684;28;20128;-57
2023/07/12 03:51:10;;;;;;;13.02;8.15;;;;;;;16.87;100.00;95746.44;2115118;28;20435;-57
2023/07/12 03:52:11;;;;;;;13.38;6.70;;;;;;;16.84;100.00;95747.50;2097892;28;20476;-58
2023/07/12 03:53:13;;;;;;;13.82;6.40;;;;;;;16.84;100.00;95750.13;2097845;28;20059;-57
2023/07/12 03:54:14;;;;;;;16.67;6.95;;;;;;;16.85;100.00;95740.47;2115647;28;20481;-57
2023/07/12 03:55:15;;;;;;;11.68;6.15;;;;;;;16.81;100.00;95725.91;2114921;28;20054;-57
2023/07/12 03:56:16;;;;;;;14.98;6.95;;;;;;;16.86;100.00;95742.97;2115428;28;20040;-57
2023/07/12 03:57:17;;;;;;;14.77;7.13;;;;;;;16.88;100.00;95748.09;2115580;28;20039;-57
2023/07/12 03:58:21;;;;;;;12.27;6.85;;;;;;;16.88;100.00;95740.22;2115672;28;20054;-57
2023/07/12 03:59:22;;;;;;;15.45;6.70;;;;;;;16.87;100.00;95744.66;2115461;28;20035;-57
2023/07/12 04:00:23;;;;;;;12.70;6.75;;;;;;;16.88;100.00;95750.72;2114976;28;20052;-57
2023/07/12 04:01:24;;;;;;;11.10;6.95;;;;;;;16.90;100.00;95746.19;2114915;28;20060;-57
2023/07/12 04:02:26;;;;;;;15.23;7.50;;;;;;;16.89;100.00;95750.63;2115678;28;20058;-57
2023/07/12 04:03:27;;;;;;;11.52;6.70;;;;;;;16.82;100.00;95733.66;2115670;28;20391;-57
2023/07/12 04:04:28;;;;;;;11.48;6.47;;;;;;;16.90;100.00;95747.03;2114801;28;20047;-57
2023/07/12 04:05:29;;;;;;;10.60;6.72;;;;;;;16.90;100.00;95749.66;2115011;28;20051;-57
2023/07/12 04:06:31;;;;;;;15.85;7.72;;;;;;;16.88;100.00;95748.09;2115465;28;20067;-57
2023/07/12 04:07:32;;;;;;;14.45;7.82;;;;;;;16.93;100.00;95756.44;2114775;28;20052;-57
2023/07/12 04:08:33;;;;;;;10.63;7.28;;;;;;;16.90;100.00;95752.28;2115307;28;20043;-57
2023/07/12 04:09:34;;;;;;;13.98;7.38;;;;;;;16.92;100.00;95753.00;2114651;28;20064;-57
2023/07/12 04:10:35;;;;;;;14.80;7.90;;;;;;;16.90;100.00;95749.66;2115881;28;20070;-57
2023/07/12 04:11:38;;;;;;;15.52;7.68;;;;;;;16.92;100.00;95762.63;2115112;28;20479;-57
2023/07/12 04:12:40;;;;;;;10.38;7.13;;;;;;;16.93;100.00;95756.44;2114870;28;20055;-57
2023/07/12 04:13:41;;;;;;;10.52;7.30;;;;;;;16.90;100.00;95759.31;2115535;28;20043;-57
2023/07/12 04:14:42;;;;;;;13.75;7.85;;;;;;;16.91;100.00;95763.59;2115442;28;20062;-57
2023/07/12 04:15:43;;;;;;;13.48;7.95;;;;;;;16.82;100.00;95740.72;2114752;28;20044;-57
2023/07/12 04:16:47;;;;;;;11.60;7.32;;;;;;;16.91;100.00;95756.56;2115433;28;20044;-57
2023/07/12 04:17:48;;;;;;;11.40;7.15;;;;;;;16.95;100.00;95759.81;2115259;28;20479;-57
2023/07/12 04:18:49;;;;;;;9.43;6.47;;;;;;;16.96;100.00;95762.28;2115408;28;20410;-57
2023/07/12 04:19:50;;;;;;;10.65;7.38;;;;;;;16.95;100.00;95754.56;2115211;28;20035;-57
2023/07/12 04:20:52;;;;;;;14.15;8.05;;;;;;;16.98;100.00;95749.91;2115036;28;20058;-57
2023/07/12 04:21:53;;;;;;;11.75;7.47;;;;;;;16.96;100.00;95745.72;2114588;28;20052;-58
2023/07/12 04:22:54;;;;;;;19.02;7.60;;;;;;;17.01;100.00;95750.63;2114728;28;20052;-57
2023/07/12 04:23:55;;;;;;;14.15;7.60;;;;;;;16.97;100.00;95747.38;2115175;28;20059;-58
2023/07/12 04:24:56;;;;;;;12.82;6.80;;;;;;;17.01;100.00;95753.25;2114553;28;20052;-58
2023/07/12 04:25:59;;;;;;;14.38;7.82;;;;;;;17.02;100.00;95744.41;2114803;28;20047;-58
2023/07/12 04:27:00;;;;;;;16.58;7.57;;;;;;;17.03;100.00;95743.47;2114410;28;20059;-58
2023/07/12 04:28:01;;;;;;;18.58;8.57;;;;;;;16.97;100.00;95722.00;2115298;28;20051;-57
2023/07/12 04:29:02;;;;;;;12.65;6.85;;;;;;;17.02;100.00;95728.69;2115321;28;20400;-58
2023/07/12 04:30:04;;;;;;;19.15;8.48;;;;;;;17.04;100.00;95722.34;2114149;28;20479;-57
2023/07/12 04:31:07;;;;;;;15.93;7.40;;;;;;;17.01;100.00;95714.72;2115152;28;20042;-57
2023/07/12 04:32:08;;;;;;;17.55;7.40;;;;;;;17.02;100.00;95710.31;2114507;28;20054;-58
2023/07/12 04:33:09;;;;;;;13.35;7.75;;;;;;;17.09;100.00;95724.63;2105615;28;20391;-57
2023/07/12 04:34:10;;;;;;;13.25;7.85;;;;;;;17.06;100.00;95722.25;2106266;28;20047;-57
2023/07/12 04:35:11;;;;;;;13.32;7.93;;;;;;;17.12;100.00;95721.78;2115105;28;20058;-57
2023/07/12 04:36:13;;;;;;;14.20;8.23;;;;;;;16.99;100.00;95695.66;2115115;28;20407;-57
2023/07/12 04:37:15;;;;;;;12.50;8.05;;;;;;;17.14;100.00;95717.25;2105378;28;20487;-57
2023/07/12 04:38:17;;;;;;;15.13;8.32;;;;;;;17.18;100.00;95721.28;2106317;28;20044;-57
2023/07/12 04:39:18;;;;;;;13.18;8.73;;;;;;;17.11;100.00;95701.75;2114848;28;20047;-57
2023/07/12 04:40:19;;;;;;;13.88;7.78;;;;;;;17.22;100.00;95722.72;2106169;28;20372;-57
2023/07/12 04:41:20;;;;;;;10.98;7.20;;;;;;;17.26;100.00;95724.13;2106118;28;20082;-58
2023/07/12 04:42:21;;;;;;;17.13;8.10;;;;;;;17.29;100.00;95731.78;2115153;28;20051;-58
2023/07/12 04:43:22;;;;;;;14.63;7.68;;;;;;;17.25;100.00;95716.41;2114718;28;20059;-58
2023/07/12 04:44:23;;;;;;;10.80;7.13;;;;;;;17.39;100.00;95737.97;2114423;28;20058;-57
2023/07/12 04:45:24;;;;;;;12.98;7.57;;;;;;;17.45;100.00;95739.28;2114506;28;20056;-57
2023/07/12 04:46:25;;;;;;;13.32;8.50;;;;;;;17.52;100.00;95731.78;2115172;28;20471;-58
2023/07/12 04:47:27;;;;;;;13.75;7.82;;;;;;;17.57;100.00;95745.38;2114283;28;20048;-58